Main page
Satellite images Climate Cyclones Lightning AirportsFAQ Languages Contact Newsletter About
Weather : Europe Africa North America South America Asia Australia-Oceania Others

guangzhou-cn, Guangzhou, Guangzhou Baiyun International Airport

59287

latitude: , longitude: China, elevation: 23-10N m


METAR: ZGGG 200700Z 20003MPS 140V250 9999 SCT005 BKN046 24/21 Q1004 NOSIG